Le Boreal — FLSY — position and weather

sailwx.info

Track history (hours):
 
Tides and Currents Weather Stations Pressure Air Temp Water Temp Dewpoint Dewpoint Depression Visibility Wind Speed Wind Dir Waves Ship Positions

Le Boreal

Last reported at 2014-Sep-28 06:23 UTC. Time now 2014-Sep-30 13:49 UTC.
Position N 41°35' W 069°34'.

Length 142 m; draft 5 m.

Type: Passenger vessel. MMSI: 578000500.

Date/timePositionNaut miles runAvg speedWind from/ knotsBaromVisibWave heightAir tempDewpointWater temp
2014-Sep-28 06:23N 41°35' W 069°34'7311.7
2014-Sep-28 00:06N 42°23' W 070°49'9 9.4
2014-Sep-27 23:05N 42°21' W 071°01'0 0.1
2014-Sep-27 15:32N 42°21' W 071°02'0 0.0
2014-Sep-27 14:32N 42°21' W 071°02'0 0.1
2014-Sep-27 12:13N 42°21' W 071°02'5 6.9
2014-Sep-27 11:33N 42°22' W 070°56'76 6.9
2014-Sep-27 00:33N 43°28' W 070°06'9 8.6
2014-Sep-26 23:33N 43°36' W 070°11'4 4.4
2014-Sep-26 22:33N 43°40' W 070°15'1 0.2
2014-Sep-26 14:33N 43°39' W 070°13'1111.2
2014-Sep-26 13:33N 43°32' W 070°02'3112.5
2014-Sep-26 11:05N 43°25' W 069°20'712.3
2014-Sep-26 10:32N 43°24' W 069°11'  
Track history (hours):
 
Tides and Currents Weather Stations Pressure Air Temp Water Temp Dewpoint Dewpoint Depression Visibility Wind Speed Wind Dir Waves Ship Positions

Le Boreal

Last reported at 2014-Sep-28 06:23 UTC. Time now 2014-Sep-30 13:49 UTC.
Position N 41°35' W 069°34'.

Length 142 m; draft 5 m.

Type: Passenger vessel. MMSI: 578000500.

Date/timePositionNaut miles runAvg speedWind from/ knotsBaromVisibWave heightAir tempDewpointWater temp
2014-Sep-28 06:23N 41°35' W 069°34'7311.7
2014-Sep-28 00:06N 42°23' W 070°49'9 9.4
2014-Sep-27 23:05N 42°21' W 071°01'0 0.1
2014-Sep-27 15:32N 42°21' W 071°02'0 0.0
2014-Sep-27 14:32N 42°21' W 071°02'0 0.1
2014-Sep-27 12:13N 42°21' W 071°02'5 6.9
2014-Sep-27 11:33N 42°22' W 070°56'76 6.9
2014-Sep-27 00:33N 43°28' W 070°06'9 8.6
2014-Sep-26 23:33N 43°36' W 070°11'4 4.4
2014-Sep-26 22:33N 43°40' W 070°15'1 0.2
2014-Sep-26 14:33N 43°39' W 070°13'1111.2
2014-Sep-26 13:33N 43°32' W 070°02'3112.5
2014-Sep-26 11:05N 43°25' W 069°20'712.3
2014-Sep-26 10:32N 43°24' W 069°11'  

Dump ship's entire track history